createdAt,value
2018-12-22T00:00:27.022Z,14.20
2018-12-22T00:02:31.885Z,14.10
2018-12-22T00:04:37.369Z,14.20
2018-12-22T00:06:41.573Z,14.30
2018-12-22T00:08:47.390Z,14.30
2018-12-22T00:10:52.410Z,14.30
2018-12-22T00:12:57.322Z,14.30
2018-12-22T00:15:03.913Z,14.50
2018-12-22T00:17:09.696Z,14.50
2018-12-22T00:19:15.501Z,14.50
2018-12-22T00:21:21.343Z,14.60
2018-12-22T00:23:26.269Z,14.70
2018-12-22T00:25:32.576Z,14.90
2018-12-22T00:27:38.775Z,14.90
2018-12-22T00:29:43.220Z,15.00
2018-12-22T00:31:47.558Z,14.90
2018-12-22T00:33:51.974Z,14.90
2018-12-22T00:35:57.710Z,14.90
2018-12-22T00:38:06.786Z,15.00
2018-12-22T00:40:11.850Z,14.90
2018-12-22T00:42:17.675Z,14.90
2018-12-22T00:44:21.924Z,14.90
2018-12-22T00:46:26.247Z,14.90
2018-12-22T00:48:33.159Z,14.90
2018-12-22T00:50:37.828Z,14.90
2018-12-22T00:52:43.930Z,14.90
2018-12-22T00:54:48.812Z,14.80
2018-12-22T00:56:53.150Z,14.80
2018-12-22T00:58:57.381Z,14.80
2018-12-22T01:01:02.498Z,14.80
2018-12-22T01:03:07.544Z,14.70
2018-12-22T01:05:11.807Z,14.70
2018-12-22T01:07:16.571Z,14.60
2018-12-22T01:09:22.675Z,14.60
2018-12-22T01:11:28.463Z,14.50
2018-12-22T01:13:35.234Z,14.40
2018-12-22T01:15:40.560Z,14.30
2018-12-22T01:17:46.639Z,14.30
2018-12-22T01:19:52.424Z,14.20
2018-12-22T01:21:57.196Z,14.10
2018-12-22T01:24:01.804Z,14.20
2018-12-22T01:26:06.103Z,14.10
2018-12-22T01:28:10.958Z,14.10
2018-12-22T01:30:16.813Z,14.00
2018-12-22T01:32:21.116Z,13.80
2018-12-22T01:34:25.477Z,13.90
2018-12-22T01:36:31.258Z,13.90
2018-12-22T01:38:36.407Z,13.80
2018-12-22T01:40:40.650Z,13.80
2018-12-22T01:42:46.651Z,13.70
2018-12-22T01:44:56.082Z,13.70
2018-12-22T01:47:00.327Z,13.80
2018-12-22T01:49:05.078Z,13.70
2018-12-22T01:51:11.313Z,13.60
2018-12-22T01:53:15.595Z,13.70
2018-12-22T01:55:21.153Z,13.70
2018-12-22T01:57:25.437Z,13.70
2018-12-22T01:59:30.525Z,13.70
2018-12-22T02:01:34.749Z,13.70
2018-12-22T02:03:38.997Z,13.70
2018-12-22T02:05:44.073Z,13.60
2018-12-22T02:07:48.309Z,13.50
2018-12-22T02:09:52.613Z,13.50
2018-12-22T02:14:16.821Z,13.50
2018-12-22T02:16:21.985Z,13.50
2018-12-22T02:18:26.280Z,13.40
2018-12-22T02:20:31.403Z,13.40
2018-12-22T02:22:36.490Z,13.40
2018-12-22T02:24:40.797Z,13.30
2018-12-22T02:26:45.340Z,13.30
2018-12-22T02:28:56.567Z,13.30
2018-12-22T02:30:56.411Z,13.30
2018-12-22T02:33:00.724Z,13.30
2018-12-22T02:35:05.186Z,13.30
2018-12-22T02:37:09.956Z,13.30
2018-12-22T02:39:14.346Z,13.30
2018-12-22T02:41:18.761Z,13.40
2018-12-22T02:43:23.578Z,13.40
2018-12-22T02:45:27.926Z,13.30
2018-12-22T02:47:33.772Z,13.30
2018-12-22T02:49:38.089Z,13.30
2018-12-22T02:51:42.818Z,13.30
2018-12-22T02:53:47.824Z,13.40
2018-12-22T02:55:52.241Z,13.40
2018-12-22T02:58:02.782Z,13.40
2018-12-22T03:00:09.930Z,13.50
2018-12-22T03:02:14.160Z,13.50
2018-12-22T03:04:18.408Z,13.50
2018-12-22T03:06:23.087Z,13.40
2018-12-22T03:08:27.429Z,13.40
2018-12-22T03:10:31.829Z,13.50
2018-12-22T03:12:36.635Z,13.50
2018-12-22T03:14:41.129Z,13.50
2018-12-22T03:16:46.368Z,13.60
2018-12-22T03:18:58.841Z,13.60
2018-12-22T03:21:03.294Z,13.70
2018-12-22T03:23:07.522Z,13.70
2018-12-22T03:25:11.951Z,13.70
2018-12-22T03:27:19.610Z,13.70
2018-12-22T03:29:23.948Z,13.70
2018-12-22T03:31:28.210Z,13.70
2018-12-22T03:33:33.609Z,13.70
2018-12-22T03:35:37.910Z,13.70
2018-12-22T03:37:43.799Z,13.70
2018-12-22T03:39:49.058Z,13.70
2018-12-22T03:41:53.721Z,13.70
2018-12-22T03:43:58.092Z,13.70
2018-12-22T03:46:02.386Z,13.80
2018-12-22T03:48:07.099Z,13.80
2018-12-22T03:50:12.459Z,13.80
2018-12-22T03:52:17.468Z,13.90
2018-12-22T03:54:21.832Z,13.80
2018-12-22T03:56:26.593Z,13.80
2018-12-22T03:58:30.986Z,13.90
2018-12-22T04:00:35.206Z,13.90
2018-12-22T04:02:39.476Z,13.90
2018-12-22T04:04:45.474Z,13.90
2018-12-22T04:06:50.536Z,13.90
2018-12-22T04:08:54.893Z,13.90
2018-12-22T04:10:59.217Z,14.00
2018-12-22T04:13:03.545Z,13.90
2018-12-22T04:15:07.834Z,14.00
2018-12-22T04:17:12.897Z,13.90
2018-12-22T04:19:17.812Z,14.00
2018-12-22T04:21:26.573Z,14.00
2018-12-22T04:23:31.873Z,13.90
2018-12-22T04:25:36.263Z,13.90
2018-12-22T04:27:40.531Z,14.00
2018-12-22T04:29:44.765Z,13.90
2018-12-22T04:31:50.732Z,13.80
2018-12-22T04:33:55.205Z,13.90
2018-12-22T04:35:59.449Z,13.80
2018-12-22T04:38:03.705Z,13.80
2018-12-22T04:40:07.964Z,13.90
2018-12-22T04:42:13.607Z,13.90
2018-12-22T04:44:18.372Z,14.00
2018-12-22T04:46:22.836Z,14.00
2018-12-22T04:48:27.584Z,13.90
2018-12-22T04:50:31.775Z,13.90
2018-12-22T04:52:36.140Z,13.90
2018-12-22T04:54:40.356Z,14.00
2018-12-22T04:56:45.040Z,13.90
2018-12-22T04:58:49.358Z,13.90
2018-12-22T05:00:53.652Z,14.00
2018-12-22T05:02:57.918Z,14.00
2018-12-22T05:05:02.639Z,14.00
2018-12-22T05:07:06.903Z,14.00
2018-12-22T05:09:12.083Z,14.00
2018-12-22T05:11:16.353Z,13.90
2018-12-22T05:13:20.828Z,13.90
2018-12-22T05:15:25.080Z,13.90
2018-12-22T05:17:29.326Z,13.90
2018-12-22T05:19:33.839Z,14.00
2018-12-22T05:21:38.735Z,13.90
2018-12-22T05:23:43.085Z,13.80
2018-12-22T05:25:48.118Z,13.80
2018-12-22T05:27:52.758Z,14.00
2018-12-22T05:29:57.013Z,14.10
2018-12-22T05:32:01.270Z,14.10
2018-12-22T05:34:06.093Z,14.10
2018-12-22T05:36:10.444Z,14.10
2018-12-22T05:38:15.668Z,14.10
2018-12-22T05:40:20.249Z,14.10
2018-12-22T05:42:31.298Z,14.10
2018-12-22T05:44:35.533Z,14.20
2018-12-22T05:46:40.734Z,14.20
2018-12-22T05:48:45.413Z,14.20
2018-12-22T05:50:51.063Z,14.20
2018-12-22T05:52:55.408Z,14.10
2018-12-22T05:55:00.367Z,14.20
2018-12-22T05:57:05.511Z,14.20
2018-12-22T05:59:10.779Z,14.30
2018-12-22T06:01:15.545Z,14.30
2018-12-22T06:03:19.788Z,14.40
2018-12-22T06:05:26.482Z,14.40
2018-12-22T06:07:30.758Z,14.40
2018-12-22T06:09:35.041Z,14.40
2018-12-22T06:11:39.933Z,14.40
2018-12-22T06:13:44.281Z,14.50
2018-12-22T06:15:48.516Z,14.40
2018-12-22T06:17:52.829Z,14.60
2018-12-22T06:19:57.140Z,14.50
2018-12-22T06:22:03.285Z,14.60
2018-12-22T06:24:07.560Z,14.60
2018-12-22T06:26:12.737Z,14.60
2018-12-22T06:28:18.796Z,14.50
2018-12-22T06:30:26.340Z,14.40
2018-12-22T06:32:31.689Z,14.40
2018-12-22T06:34:37.293Z,14.50
2018-12-22T06:36:44.680Z,14.60
2018-12-22T06:38:50.124Z,14.60
2018-12-22T06:40:55.960Z,14.60
2018-12-22T06:43:00.275Z,14.60
2018-12-22T06:45:04.594Z,14.70
2018-12-22T06:47:09.306Z,14.80
2018-12-22T06:49:13.664Z,14.90
2018-12-22T06:51:19.383Z,14.90
2018-12-22T06:53:24.591Z,14.90
2018-12-22T06:55:29.002Z,14.90
2018-12-22T06:57:37.333Z,14.90
2018-12-22T06:59:43.253Z,14.90
2018-12-22T07:01:48.520Z,14.90
2018-12-22T07:03:55.716Z,15.00
2018-12-22T07:05:59.961Z,14.90
2018-12-22T07:08:06.348Z,14.90
2018-12-22T07:10:11.546Z,15.00
2018-12-22T07:12:17.223Z,14.90
2018-12-22T07:14:22.034Z,14.90
2018-12-22T07:16:26.247Z,14.90
2018-12-22T07:18:31.157Z,15.00
2018-12-22T07:20:36.002Z,14.90
2018-12-22T07:22:41.340Z,14.80
2018-12-22T07:24:46.573Z,14.80
2018-12-22T07:26:52.507Z,14.80
2018-12-22T07:28:57.501Z,14.80
2018-12-22T07:31:02.397Z,14.70
2018-12-22T07:33:09.600Z,14.70
2018-12-22T07:35:15.085Z,14.70
2018-12-22T07:37:19.353Z,14.80
2018-12-22T07:39:24.937Z,14.70
2018-12-22T07:41:29.186Z,14.70
2018-12-22T07:43:33.356Z,14.80
2018-12-22T07:45:37.599Z,14.90
2018-12-22T07:47:43.751Z,14.80
2018-12-22T07:49:52.752Z,14.80
2018-12-22T07:51:57.824Z,14.70
2018-12-22T07:54:04.001Z,14.80
2018-12-22T07:56:09.097Z,14.70
2018-12-22T07:58:14.072Z,14.80
2018-12-22T08:00:34.620Z,14.70
2018-12-22T08:02:33.284Z,14.60
2018-12-22T08:04:38.964Z,14.60
2018-12-22T08:06:45.129Z,14.50
2018-12-22T08:08:49.521Z,14.60
2018-12-22T08:10:55.006Z,14.60
2018-12-22T08:13:00.319Z,14.60
2018-12-22T08:15:05.647Z,14.70
2018-12-22T08:17:11.066Z,14.60
2018-12-22T08:19:16.719Z,14.60
2018-12-22T08:21:21.997Z,14.60
2018-12-22T08:23:26.282Z,14.60
2018-12-22T08:25:30.455Z,14.40
2018-12-22T08:27:36.197Z,14.50
2018-12-22T08:29:40.482Z,14.60
2018-12-22T08:31:45.585Z,14.60
2018-12-22T08:33:51.266Z,14.60
2018-12-22T08:35:55.619Z,14.60
2018-12-22T08:38:00.075Z,14.60
2018-12-22T08:40:05.456Z,14.30
2018-12-22T08:42:10.064Z,14.30
2018-12-22T08:44:14.322Z,14.50
2018-12-22T08:46:22.135Z,14.60
2018-12-22T08:48:26.816Z,14.60
2018-12-22T08:50:31.414Z,14.70
2018-12-22T08:52:37.011Z,14.70
2018-12-22T08:54:41.503Z,14.70
2018-12-22T08:56:49.831Z,14.60
2018-12-22T08:58:54.537Z,14.60
2018-12-22T09:01:00.361Z,14.70
2018-12-22T09:03:05.583Z,14.70
2018-12-22T09:05:11.762Z,14.80
2018-12-22T09:07:15.977Z,14.70
2018-12-22T09:09:21.018Z,14.90
2018-12-22T09:11:25.380Z,14.90
2018-12-22T09:13:29.810Z,14.90
2018-12-22T09:15:34.074Z,15.00
2018-12-22T09:17:38.960Z,15.10
2018-12-22T09:19:43.901Z,15.10
2018-12-22T09:21:48.247Z,15.30
2018-12-22T09:23:54.228Z,15.30
2018-12-22T09:25:58.649Z,15.20
2018-12-22T09:28:03.463Z,15.00
2018-12-22T09:30:14.162Z,14.70
2018-12-22T09:32:18.456Z,14.20
2018-12-22T09:34:23.177Z,13.50
2018-12-22T09:36:27.399Z,12.80
2018-12-22T09:38:31.633Z,12.20
2018-12-22T09:40:36.293Z,11.90
2018-12-22T09:42:40.574Z,11.80
2018-12-22T09:44:44.891Z,11.80
2018-12-22T09:46:49.821Z,11.70
2018-12-22T09:48:56.034Z,11.60
2018-12-22T09:51:00.357Z,11.50
2018-12-22T09:53:07.167Z,11.40
2018-12-22T09:55:12.147Z,11.20
2018-12-22T09:57:17.308Z,11.20
2018-12-22T09:59:22.376Z,11.20
2018-12-22T10:01:28.993Z,11.30
2018-12-22T10:03:33.665Z,11.30
2018-12-22T10:05:42.056Z,11.20
2018-12-22T10:07:46.988Z,11.20
2018-12-22T10:09:51.255Z,11.40
2018-12-22T10:11:56.109Z,11.50
2018-12-22T10:14:00.818Z,11.70
2018-12-22T10:16:05.110Z,11.70
2018-12-22T10:18:09.410Z,11.80
2018-12-22T10:20:13.744Z,11.80
2018-12-22T10:22:18.682Z,11.70
2018-12-22T10:24:24.149Z,11.60
2018-12-22T10:26:29.208Z,11.70
2018-12-22T10:28:34.423Z,11.90
2018-12-22T10:30:38.778Z,11.90
2018-12-22T10:32:43.096Z,11.90
2018-12-22T10:34:49.109Z,11.90
2018-12-22T10:36:53.327Z,12.10
2018-12-22T10:38:57.617Z,12.10
2018-12-22T10:41:02.700Z,12.20
2018-12-22T10:43:07.806Z,12.40
2018-12-22T10:45:14.107Z,12.60
2018-12-22T10:47:19.181Z,12.70
2018-12-22T10:49:23.364Z,12.70
2018-12-22T10:51:27.708Z,12.80
2018-12-22T10:53:32.010Z,12.90
2018-12-22T10:55:36.960Z,13.00
2018-12-22T10:57:41.609Z,13.00
2018-12-22T10:59:45.924Z,13.10
2018-12-22T11:01:51.322Z,13.20
2018-12-22T11:03:56.509Z,13.30
2018-12-22T11:06:02.277Z,13.40
2018-12-22T11:08:06.545Z,13.40
2018-12-22T11:10:26.357Z,13.40
2018-12-22T11:12:30.545Z,13.40
2018-12-22T11:14:34.758Z,13.50
2018-12-22T11:16:40.345Z,13.50
2018-12-22T11:18:44.596Z,13.70
2018-12-22T11:20:48.839Z,13.80
2018-12-22T11:22:53.037Z,13.90
2018-12-22T11:24:57.280Z,14.00
2018-12-22T11:27:02.227Z,14.00
2018-12-22T11:29:06.501Z,14.20
2018-12-22T11:31:10.683Z,14.30
2018-12-22T11:33:15.001Z,14.30
2018-12-22T11:35:22.965Z,14.30
2018-12-22T11:37:27.340Z,14.30
2018-12-22T11:39:31.600Z,14.40
2018-12-22T11:41:37.391Z,14.60
2018-12-22T11:43:41.641Z,14.80
2018-12-22T11:45:45.873Z,14.80
2018-12-22T11:48:00.167Z,15.00
2018-12-22T11:50:06.345Z,15.10
2018-12-22T11:52:10.612Z,15.30
2018-12-22T11:54:16.580Z,15.30
2018-12-22T11:56:20.909Z,15.40
2018-12-22T11:58:26.450Z,15.50
2018-12-22T12:00:32.495Z,15.50
2018-12-22T12:02:37.814Z,15.40
2018-12-22T12:04:42.190Z,15.70
2018-12-22T12:06:47.050Z,15.80
2018-12-22T12:08:51.429Z,15.80
2018-12-22T12:10:55.752Z,15.80
2018-12-22T12:12:59.976Z,15.80
2018-12-22T12:15:04.709Z,16.00
2018-12-22T12:17:25.025Z,15.80
2018-12-22T12:19:32.852Z,15.80
2018-12-22T12:21:38.097Z,16.00
2018-12-22T12:23:42.732Z,16.10
2018-12-22T12:25:50.283Z,16.20
2018-12-22T12:27:54.598Z,16.10
2018-12-22T12:29:59.226Z,16.10
2018-12-22T12:32:04.661Z,16.00
2018-12-22T12:34:08.994Z,15.90
2018-12-22T12:36:13.914Z,15.90
2018-12-22T12:38:18.725Z,15.80
2018-12-22T12:40:23.726Z,15.80
2018-12-22T12:42:29.636Z,15.90
2018-12-22T12:44:33.949Z,15.90
2018-12-22T12:46:57.786Z,15.80
2018-12-22T12:49:02.570Z,15.80
2018-12-22T12:51:07.395Z,15.60
2018-12-22T12:53:12.643Z,15.50
2018-12-22T12:55:18.795Z,15.70
2018-12-22T12:57:22.988Z,15.80
2018-12-22T12:59:28.717Z,15.80
2018-12-22T13:01:33.905Z,15.80
2018-12-22T13:03:39.133Z,15.80
2018-12-22T13:05:44.363Z,15.80
2018-12-22T13:07:49.354Z,15.90
2018-12-22T13:09:54.231Z,15.90
2018-12-22T13:12:02.383Z,15.90
2018-12-22T13:14:16.052Z,15.90
2018-12-22T13:16:26.232Z,15.90
2018-12-22T13:18:38.656Z,16.00
2018-12-22T13:20:44.131Z,15.90
2018-12-22T13:22:48.422Z,15.90
2018-12-22T13:24:52.616Z,16.00
2018-12-22T13:26:57.920Z,15.90
2018-12-22T13:29:02.833Z,15.80
2018-12-22T13:31:07.891Z,16.00
2018-12-22T13:33:13.768Z,16.00
2018-12-22T13:35:18.055Z,16.10
2018-12-22T13:37:22.262Z,16.10
2018-12-22T13:39:28.756Z,16.10
2018-12-22T13:41:36.774Z,16.20
2018-12-22T13:43:41.865Z,16.20
2018-12-22T13:45:47.952Z,16.20
2018-12-22T13:47:52.717Z,16.10
2018-12-22T13:50:01.799Z,16.10
2018-12-22T13:52:06.838Z,16.10
2018-12-22T13:54:11.553Z,15.90
2018-12-22T13:56:15.960Z,16.00
2018-12-22T13:58:20.289Z,16.00
2018-12-22T14:00:26.852Z,16.00
2018-12-22T14:02:33.368Z,15.90
2018-12-22T14:04:38.401Z,15.80
2018-12-22T14:06:46.021Z,15.80
2018-12-22T14:08:52.075Z,15.70
2018-12-22T14:10:56.340Z,15.70
2018-12-22T14:13:01.991Z,15.60
2018-12-22T14:15:12.825Z,15.50
2018-12-22T14:17:26.310Z,15.40
2018-12-22T14:19:30.541Z,15.30
2018-12-22T14:21:34.780Z,15.10
2018-12-22T14:24:17.042Z,15.00
2018-12-22T14:26:21.304Z,14.90
2018-12-22T14:28:25.762Z,14.80
2018-12-22T14:30:37.709Z,14.90
2018-12-22T14:32:42.013Z,14.90
2018-12-22T14:34:53.650Z,14.90
2018-12-22T14:37:01.209Z,14.80
2018-12-22T14:39:07.280Z,14.70
2018-12-22T14:41:11.584Z,14.60
2018-12-22T14:43:18.001Z,14.60
2018-12-22T14:45:24.389Z,14.50
2018-12-22T14:47:28.670Z,14.50
2018-12-22T14:49:33.804Z,14.50
2018-12-22T14:51:39.066Z,14.40
2018-12-22T14:53:46.675Z,14.30
2018-12-22T14:55:52.251Z,14.30
2018-12-22T14:57:59.385Z,14.20
2018-12-22T15:00:03.960Z,14.20
2018-12-22T15:02:09.354Z,14.20
2018-12-22T15:04:14.370Z,14.30
2018-12-22T15:06:20.569Z,14.20
2018-12-22T15:08:25.047Z,14.20
2018-12-22T15:10:29.539Z,14.10
2018-12-22T15:12:33.768Z,14.20
2018-12-22T15:14:38.585Z,14.20
2018-12-22T15:16:43.473Z,14.20
2018-12-22T15:18:49.525Z,14.10
2018-12-22T15:20:55.000Z,14.00
2018-12-22T15:22:59.360Z,14.00
2018-12-22T15:25:03.544Z,14.00
2018-12-22T15:27:09.222Z,13.90
2018-12-22T15:29:14.577Z,13.80
2018-12-22T15:31:19.841Z,13.70
2018-12-22T15:33:24.100Z,13.70
2018-12-22T15:35:28.524Z,13.80
2018-12-22T15:37:32.837Z,13.70
2018-12-22T15:39:37.616Z,13.60
2018-12-22T15:41:42.586Z,13.60
2018-12-22T15:43:52.698Z,13.60
2018-12-22T15:45:57.995Z,13.50
2018-12-22T15:48:02.718Z,13.50
2018-12-22T15:50:09.441Z,13.60
2018-12-22T15:52:13.755Z,13.50
2018-12-22T15:54:20.276Z,13.50
2018-12-22T15:56:25.111Z,13.40
2018-12-22T15:58:32.476Z,13.40
2018-12-22T16:00:37.341Z,13.30
2018-12-22T16:02:41.603Z,13.20
2018-12-22T16:04:45.820Z,13.20
2018-12-22T16:06:51.125Z,13.30
2018-12-22T16:08:57.109Z,13.30
2018-12-22T16:11:03.399Z,13.30
2018-12-22T16:13:12.168Z,13.20
2018-12-22T16:15:18.791Z,13.20
2018-12-22T16:17:23.547Z,13.10
2018-12-22T16:19:29.383Z,13.10
2018-12-22T16:21:33.669Z,13.00
2018-12-22T16:23:42.703Z,12.90
2018-12-22T16:25:48.426Z,12.80
2018-12-22T16:27:56.255Z,12.80
2018-12-22T16:30:01.539Z,12.80
2018-12-22T16:32:07.464Z,12.70
2018-12-22T16:34:14.773Z,12.70
2018-12-22T16:36:20.805Z,12.70
2018-12-22T16:38:26.148Z,12.60
2018-12-22T16:40:30.744Z,12.60
2018-12-22T16:42:35.697Z,12.60
2018-12-22T16:44:40.694Z,12.60
2018-12-22T16:46:46.724Z,12.50
2018-12-22T16:48:51.098Z,12.40
2018-12-22T16:50:59.299Z,12.40
2018-12-22T16:53:07.883Z,12.30
2018-12-22T16:55:16.306Z,12.30
2018-12-22T16:57:26.760Z,12.40
2018-12-22T16:59:33.585Z,12.40
2018-12-22T17:02:02.201Z,12.40
2018-12-22T17:04:09.242Z,12.40
2018-12-22T17:06:20.761Z,12.30
2018-12-22T17:10:56.593Z,12.30
2018-12-22T17:13:05.496Z,12.20
2018-12-22T17:15:21.831Z,12.20
2018-12-22T17:17:23.617Z,12.20
2018-12-22T17:19:32.240Z,12.20
2018-12-22T17:21:50.098Z,12.10
2018-12-22T17:24:02.749Z,12.10
2018-12-22T17:26:09.713Z,12.30
2018-12-22T17:28:16.570Z,12.20
2018-12-22T17:30:24.750Z,12.20
2018-12-22T17:32:30.187Z,12.20
2018-12-22T17:34:36.038Z,12.20
2018-12-22T17:36:40.634Z,12.20
2018-12-22T17:38:46.232Z,12.20
2018-12-22T17:40:52.498Z,12.20
2018-12-22T17:42:56.779Z,12.20
2018-12-22T17:45:01.957Z,12.10
2018-12-22T17:47:06.888Z,12.10
2018-12-22T17:49:11.887Z,12.10
2018-12-22T17:51:16.291Z,12.00
2018-12-22T17:53:23.311Z,12.00
2018-12-22T17:55:31.860Z,12.00
2018-12-22T17:57:36.308Z,11.90
2018-12-22T17:59:41.515Z,11.90
2018-12-22T18:01:51.506Z,12.00
2018-12-22T18:03:57.262Z,12.00
2018-12-22T18:06:02.666Z,12.00
2018-12-22T18:08:06.909Z,12.00
2018-12-22T18:10:12.097Z,12.00
2018-12-22T18:12:16.328Z,12.10
2018-12-22T18:14:20.524Z,12.10
2018-12-22T18:16:24.850Z,12.10
2018-12-22T18:18:29.229Z,12.20
2018-12-22T18:20:33.950Z,12.20
2018-12-22T18:22:38.278Z,12.10
2018-12-22T18:24:45.107Z,12.10
2018-12-22T18:26:49.389Z,12.10
2018-12-22T18:28:54.709Z,12.10
2018-12-22T18:31:01.250Z,12.20
2018-12-22T18:33:05.564Z,12.10
2018-12-22T18:35:18.893Z,12.10
2018-12-22T18:37:23.652Z,12.00
2018-12-22T18:39:28.764Z,12.00
2018-12-22T18:41:36.037Z,12.00
2018-12-22T18:43:40.548Z,12.00
2018-12-22T18:45:45.617Z,12.00
2018-12-22T18:47:53.861Z,12.00
2018-12-22T18:50:01.755Z,11.90
2018-12-22T18:52:06.037Z,11.90
2018-12-22T18:54:11.962Z,11.90
2018-12-22T18:56:19.025Z,11.90
2018-12-22T18:58:24.015Z,11.90
2018-12-22T19:00:33.623Z,11.90
2018-12-22T19:02:39.890Z,11.90
2018-12-22T19:04:46.635Z,11.90
2018-12-22T19:06:50.912Z,11.90
2018-12-22T19:08:59.256Z,11.90
2018-12-22T19:11:08.584Z,11.80
2018-12-22T19:13:15.427Z,11.80
2018-12-22T19:15:26.756Z,11.80
2018-12-22T19:17:31.993Z,11.80
2018-12-22T19:19:36.749Z,11.80
2018-12-22T19:21:41.620Z,11.70
2018-12-22T19:23:49.310Z,11.70
2018-12-22T19:25:53.807Z,11.70
2018-12-22T19:27:58.389Z,11.70
2018-12-22T19:30:03.157Z,11.60
2018-12-22T19:32:07.535Z,11.70
2018-12-22T19:34:12.698Z,11.70
2018-12-22T19:36:17.663Z,11.70
2018-12-22T19:38:22.480Z,11.60
2018-12-22T19:40:28.150Z,11.50
2018-12-22T19:42:32.461Z,11.50
2018-12-22T19:44:38.074Z,11.50
2018-12-22T19:46:42.740Z,11.50
2018-12-22T19:48:49.181Z,11.50
2018-12-22T19:50:55.066Z,11.40
2018-12-22T19:53:00.020Z,11.40
2018-12-22T19:55:04.249Z,11.40
2018-12-22T19:57:09.173Z,11.30
2018-12-22T19:59:14.136Z,11.30
2018-12-22T20:01:22.319Z,11.30
2018-12-22T20:03:27.129Z,11.20
2018-12-22T20:05:31.401Z,11.20
2018-12-22T20:07:36.625Z,11.20
2018-12-22T20:09:41.878Z,11.20
2018-12-22T20:11:48.812Z,11.20
2018-12-22T20:13:53.345Z,11.10
2018-12-22T20:15:58.822Z,11.00
2018-12-22T20:18:05.561Z,11.00
2018-12-22T20:20:11.254Z,11.00
2018-12-22T20:22:15.633Z,11.10
2018-12-22T20:24:22.253Z,11.10
2018-12-22T20:26:27.903Z,11.20
2018-12-22T20:28:33.428Z,11.20
2018-12-22T20:30:40.426Z,11.20
2018-12-22T20:32:51.023Z,11.30
2018-12-22T20:37:09.397Z,11.40
2018-12-22T20:39:15.643Z,11.50
2018-12-22T20:41:26.221Z,11.60
2018-12-22T20:43:32.908Z,11.60
2018-12-22T20:45:46.996Z,11.70
2018-12-22T20:47:52.913Z,11.70
2018-12-22T20:50:04.353Z,11.80
2018-12-22T20:52:11.455Z,11.90
2018-12-22T20:54:18.563Z,12.00
2018-12-22T20:56:25.264Z,12.00
2018-12-22T20:58:40.488Z,12.10
2018-12-22T21:00:46.427Z,12.10
2018-12-22T21:02:52.641Z,12.10
2018-12-22T21:04:59.187Z,12.20
2018-12-22T21:07:03.399Z,12.10
2018-12-22T21:09:09.840Z,12.20
2018-12-22T21:11:14.038Z,12.10
2018-12-22T21:13:18.952Z,12.20
2018-12-22T21:15:27.426Z,12.20
2018-12-22T21:17:35.428Z,12.20
2018-12-22T21:19:41.001Z,12.30
2018-12-22T21:21:46.420Z,12.30
2018-12-22T21:23:54.797Z,12.30
2018-12-22T21:26:04.002Z,12.30
2018-12-22T21:28:09.552Z,12.30
2018-12-22T21:30:17.320Z,12.30
2018-12-22T21:32:31.227Z,12.40
2018-12-22T21:34:41.602Z,12.40
2018-12-22T21:36:46.786Z,12.40
2018-12-22T21:38:57.326Z,12.20
2018-12-22T21:41:03.609Z,12.20
2018-12-22T21:43:07.925Z,12.20
2018-12-22T21:45:16.506Z,12.20
2018-12-22T21:47:26.932Z,12.30
2018-12-22T21:49:35.738Z,12.30
2018-12-22T21:51:50.383Z,12.40
2018-12-22T21:54:00.510Z,12.30
2018-12-22T21:56:08.221Z,12.40
2018-12-22T21:58:20.413Z,12.40
2018-12-22T22:00:25.928Z,12.20
2018-12-22T22:02:33.148Z,12.30
2018-12-22T22:04:41.251Z,12.40
2018-12-22T22:06:49.800Z,12.40
2018-12-22T22:08:54.397Z,12.40
2018-12-22T22:10:59.759Z,12.40
2018-12-22T22:13:07.702Z,12.40
2018-12-22T22:15:14.503Z,12.40
2018-12-22T22:17:20.331Z,12.40
2018-12-22T22:19:26.599Z,12.40
2018-12-22T22:21:32.420Z,12.40
2018-12-22T22:23:37.236Z,12.50
2018-12-22T22:25:41.565Z,12.50
2018-12-22T22:27:46.060Z,12.50
2018-12-22T22:29:50.462Z,12.60
2018-12-22T22:31:54.790Z,12.50
2018-12-22T22:33:59.934Z,12.50
2018-12-22T22:36:04.218Z,12.50
2018-12-22T22:38:09.033Z,12.40
2018-12-22T22:40:14.923Z,12.40
2018-12-22T22:42:19.969Z,12.40
2018-12-22T22:44:25.934Z,12.30
2018-12-22T22:46:30.440Z,12.30
2018-12-22T22:48:37.400Z,12.20
2018-12-22T22:50:41.766Z,12.10
2018-12-22T22:52:48.398Z,12.10
2018-12-22T22:54:53.438Z,12.00
2018-12-22T22:57:02.467Z,11.90
2018-12-22T22:59:08.870Z,11.80
2018-12-22T23:01:14.555Z,11.90
2018-12-22T23:03:20.793Z,11.80
2018-12-22T23:05:25.039Z,11.70
2018-12-22T23:07:29.894Z,11.70
2018-12-22T23:09:34.325Z,11.70
2018-12-22T23:11:40.096Z,11.60
2018-12-22T23:13:44.334Z,11.70
2018-12-22T23:15:48.639Z,11.70
2018-12-22T23:17:53.021Z,11.70
2018-12-22T23:19:58.462Z,11.70
2018-12-22T23:22:03.704Z,11.70
2018-12-22T23:24:09.057Z,11.70
2018-12-22T23:26:16.859Z,11.70
2018-12-22T23:28:23.227Z,11.80
2018-12-22T23:30:27.761Z,11.80
2018-12-22T23:32:32.142Z,11.70
2018-12-22T23:34:38.113Z,11.70
2018-12-22T23:36:43.398Z,11.80
2018-12-22T23:38:47.731Z,11.90
2018-12-22T23:40:52.509Z,11.90
2018-12-22T23:42:56.763Z,11.90
2018-12-22T23:45:01.123Z,11.80
2018-12-22T23:47:05.972Z,11.70
2018-12-22T23:49:14.647Z,11.80
2018-12-22T23:51:19.010Z,11.70
2018-12-22T23:53:23.444Z,11.60
2018-12-22T23:55:28.499Z,11.60
2018-12-22T23:57:33.216Z,11.60
2018-12-22T23:59:37.517Z,11.50
